Time;durP1;ratioP1;P1;durP2;ratioP2;P2;SDS_P1;SDS_P2;PMS_P1;PMS_P2;Temp;Humidity;BMP_temperature;BMP_pressure;BME280_temperature;BME280_humidity;BME280_pressure;Samples;Min_cycle;Max_cycle;Signal;HPM_P1;HPM_P2
2021/08/23 00:00:22;;;;;;;7.80;5.50;;;;;;;22.02;47.96;97643.46;115907;1185;71331;-52
2021/08/23 00:03:01;;;;;;;6.60;5.60;;;;;;;22.00;47.99;97641.21;115860;1185;68402;-54
2021/08/23 00:05:33;;;;;;;6.90;4.70;;;;;;;21.99;48.05;97639.92;115863;1184;69016;-55
2021/08/23 00:08:06;;;;;;;6.70;4.80;;;;;;;21.97;48.08;97641.58;115918;1185;59560;-55
2021/08/23 00:10:37;;;;;;;5.70;4.50;;;;;;;21.95;48.07;97640.88;115942;1181;59586;-55
2021/08/23 00:13:08;;;;;;;6.80;5.20;;;;;;;21.94;48.11;97639.96;115879;1181;70844;-52
2021/08/23 00:15:41;;;;;;;5.30;4.60;;;;;;;21.91;48.12;97639.91;115768;1181;69198;-53
2021/08/23 00:18:12;;;;;;;5.40;4.80;;;;;;;21.90;48.17;97635.83;115826;1185;69235;-53
2021/08/23 00:20:43;;;;;;;4.90;4.20;;;;;;;21.88;48.16;97632.33;115856;1185;59541;-54
2021/08/23 00:23:16;;;;;;;5.90;4.40;;;;;;;21.86;48.21;97632.13;116042;1185;59575;-53
2021/08/23 00:25:48;;;;;;;6.80;4.50;;;;;;;21.84;48.17;97633.74;115884;1185;70831;-52
2021/08/23 00:28:20;;;;;;;6.30;4.90;;;;;;;21.84;48.17;97632.59;115752;1185;69074;-53
2021/08/23 00:30:53;;;;;;;8.30;5.20;;;;;;;21.83;48.11;97635.56;115841;1185;68278;-53
2021/08/23 00:33:25;;;;;;;7.40;5.50;;;;;;;21.81;48.09;97634.48;115677;1186;59559;-55
2021/08/23 00:35:57;;;;;;;7.50;5.30;;;;;;;21.80;48.16;97638.48;115818;1184;59540;-55
2021/08/23 00:38:31;;;;;;;7.50;5.30;;;;;;;21.78;48.07;97636.96;115799;1186;70610;-54
2021/08/23 00:41:02;;;;;;;7.40;5.20;;;;;;;21.77;48.07;97638.72;115804;1186;69164;-55
2021/08/23 00:43:34;;;;;;;5.70;4.70;;;;;;;21.74;48.07;97636.67;115653;1184;69365;-55
2021/08/23 00:46:05;;;;;;;7.50;5.00;;;;;;;21.73;48.12;97633.86;115752;1186;59533;-55
2021/08/23 00:48:36;;;;;;;6.60;4.80;;;;;;;21.72;48.25;97636.08;115823;1182;59535;-50
2021/08/23 00:51:08;;;;;;;6.20;4.80;;;;;;;21.70;48.19;97632.08;115830;1186;70468;-56
2021/08/23 00:53:40;;;;;;;6.20;4.80;;;;;;;21.68;48.32;97631.27;115818;1186;69124;-56
2021/08/23 00:56:12;;;;;;;5.90;4.60;;;;;;;21.66;48.32;97631.98;115701;1186;68416;-54
2021/08/23 00:58:43;;;;;;;6.10;4.80;;;;;;;21.65;48.33;97629.65;115704;1186;59559;-52
2021/08/23 01:01:45;;;;;;;6.30;4.50;;;;;;;21.63;48.25;97628.94;115602;1186;59565;-56
2021/08/23 01:04:32;;;;;;;5.70;4.70;;;;;;;21.61;48.40;97632.58;115820;1186;71366;-53
2021/08/23 01:07:07;;;;;;;5.30;4.80;;;;;;;21.59;48.23;97629.02;115811;1186;69118;-53
2021/08/23 01:09:42;;;;;;;6.70;5.00;;;;;;;21.57;48.23;97629.76;115633;1186;68279;-55
2021/08/23 01:12:15;;;;;;;6.50;4.60;;;;;;;21.56;48.18;97629.41;115832;1186;61038;-54
2021/08/23 01:14:47;;;;;;;7.60;5.20;;;;;;;21.55;48.20;97623.90;115850;1186;59559;-53
2021/08/23 01:17:19;;;;;;;7.00;5.70;;;;;;;21.53;48.09;97623.18;115817;1186;70456;-53
2021/08/23 01:19:54;;;;;;;7.70;5.60;;;;;;;21.51;48.15;97618.23;115850;1186;68419;-53
2021/08/23 01:22:28;;;;;;;7.50;5.40;;;;;;;21.49;48.29;97617.59;115836;1186;69330;-54
2021/08/23 01:25:03;;;;;;;7.30;5.60;;;;;;;21.47;48.32;97615.70;115860;1183;59510;-52
2021/08/23 01:27:38;;;;;;;7.50;5.70;;;;;;;21.46;48.32;97615.71;115788;1186;59565;-54
2021/08/23 01:30:12;;;;;;;5.30;4.60;;;;;;;21.44;48.33;97615.21;115650;1187;69785;-55
2021/08/23 01:32:44;;;;;;;8.30;5.50;;;;;;;21.43;48.33;97614.95;115890;1185;69174;-48
2021/08/23 01:35:17;;;;;;;5.70;4.70;;;;;;;21.41;48.35;97614.34;115916;1185;69059;-54
2021/08/23 01:37:51;;;;;;;5.80;4.70;;;;;;;21.39;48.45;97615.05;115901;1180;59537;-55
2021/08/23 01:40:24;;;;;;;6.30;5.00;;;;;;;21.38;48.41;97612.56;115858;1183;60025;-51
2021/08/23 01:42:56;;;;;;;6.40;4.50;;;;;;;21.36;48.39;97612.02;115866;1185;71391;-55
2021/08/23 01:45:29;;;;;;;5.40;4.60;;;;;;;21.34;48.44;97609.35;115973;1184;69239;-54
2021/08/23 01:48:00;;;;;;;5.10;4.00;;;;;;;21.33;48.50;97607.73;115917;1185;68247;-56
2021/08/23 01:50:32;;;;;;;5.50;4.30;;;;;;;21.32;48.44;97606.42;115892;1185;59550;-49
2021/08/23 01:53:04;;;;;;;5.90;4.40;;;;;;;21.31;48.41;97606.88;115792;1185;59555;-52
2021/08/23 01:55:37;;;;;;;5.30;4.30;;;;;;;21.30;48.35;97602.19;115935;1185;70575;-54
2021/08/23 01:58:08;;;;;;;5.00;4.20;;;;;;;21.29;48.39;97599.80;115912;1185;68264;-53
2021/08/23 02:00:39;;;;;;;5.60;4.20;;;;;;;21.28;48.43;97598.12;115824;1185;69239;-55
2021/08/23 02:03:11;;;;;;;5.30;4.20;;;;;;;21.27;48.47;97600.05;115892;1186;59514;-54
2021/08/23 02:05:43;;;;;;;5.60;4.40;;;;;;;21.25;48.47;97598.54;115881;1185;59513;-56
2021/08/23 02:08:16;;;;;;;5.60;4.10;;;;;;;21.23;48.51;97602.44;115884;1185;71383;-52
2021/08/23 02:10:48;;;;;;;5.00;4.10;;;;;;;21.23;48.58;97601.61;115896;1185;68993;-52
2021/08/23 02:13:23;;;;;;;4.70;3.80;;;;;;;21.20;48.61;97599.39;115858;1185;68987;-53
2021/08/23 02:15:54;;;;;;;4.60;4.20;;;;;;;21.20;48.57;97601.46;115877;1185;59581;-51
2021/08/23 02:18:26;;;;;;;5.30;4.10;;;;;;;21.18;48.50;97599.91;115952;1181;59519;-55
2021/08/23 02:20:57;;;;;;;5.50;4.40;;;;;;;21.16;48.56;97599.95;115863;1185;71277;-55
2021/08/23 02:23:28;;;;;;;5.00;3.70;;;;;;;21.15;48.61;97597.96;115880;1185;68985;-55
2021/08/23 02:26:00;;;;;;;4.20;3.80;;;;;;;21.13;48.56;97594.58;115902;1185;68831;-50
2021/08/23 02:28:31;;;;;;;6.40;4.80;;;;;;;21.11;48.62;97590.48;115873;1185;59540;-51
2021/08/23 02:31:02;;;;;;;6.20;4.80;;;;;;;21.09;48.41;97589.67;115909;1185;59557;-55
2021/08/23 02:33:35;;;;;;;6.70;4.90;;;;;;;21.08;48.45;97588.05;115910;1185;71251;-54
2021/08/23 02:36:06;;;;;;;5.70;4.90;;;;;;;21.06;48.55;97591.58;115920;1185;68417;-54
2021/08/23 02:38:38;;;;;;;7.20;5.00;;;;;;;21.04;48.52;97590.30;115930;1185;69168;-53
2021/08/23 02:41:09;;;;;;;7.20;5.10;;;;;;;21.02;48.37;97591.70;115898;1181;59574;-52
2021/08/23 02:43:41;;;;;;;5.30;4.30;;;;;;;21.00;48.54;97594.41;115893;1183;59495;-55
2021/08/23 02:46:13;;;;;;;6.40;5.00;;;;;;;20.99;48.43;97595.27;115900;1185;71175;-57
2021/08/23 02:48:45;;;;;;;6.30;4.90;;;;;;;20.98;48.49;97600.55;115864;1184;68999;-53
2021/08/23 02:51:16;;;;;;;5.70;4.80;;;;;;;20.96;48.37;97600.44;115874;1185;69228;-57
2021/08/23 02:53:47;;;;;;;8.00;5.30;;;;;;;20.94;48.37;97599.71;115883;1185;59546;-53
2021/08/23 02:56:18;;;;;;;5.50;4.90;;;;;;;20.93;48.40;97599.35;115892;1184;59566;-54
2021/08/23 02:58:50;;;;;;;6.40;4.90;;;;;;;20.91;48.43;97599.77;115861;1185;70590;-55
2021/08/23 03:01:22;;;;;;;6.30;5.00;;;;;;;20.89;48.32;97595.18;115786;1185;68419;-56
2021/08/23 03:03:54;;;;;;;5.40;4.60;;;;;;;20.88;48.40;97588.34;115885;1185;68426;-52
2021/08/23 03:06:26;;;;;;;6.90;4.90;;;;;;;20.86;48.47;97589.45;115922;1182;59511;-52
2021/08/23 03:08:57;;;;;;;7.50;5.00;;;;;;;20.85;48.61;97593.15;115815;1182;59637;-54
2021/08/23 03:11:30;;;;;;;6.00;4.30;;;;;;;20.84;48.65;97595.73;115894;1181;71649;-54
2021/08/23 03:14:02;;;;;;;4.80;4.20;;;;;;;20.82;48.65;97595.20;115932;1185;68210;-55
2021/08/23 03:16:33;;;;;;;6.10;4.70;;;;;;;20.80;48.64;97596.29;115875;1185;69560;-54
2021/08/23 03:19:04;;;;;;;5.70;4.90;;;;;;;20.80;48.59;97595.29;115829;1185;59572;-55
2021/08/23 03:21:36;;;;;;;5.00;4.10;;;;;;;20.79;48.62;97596.45;115861;1185;59482;-54
2021/08/23 03:24:08;;;;;;;5.80;4.60;;;;;;;20.78;48.69;97594.45;115826;1185;70570;-53
2021/08/23 03:26:40;;;;;;;6.20;4.40;;;;;;;20.77;48.86;97596.61;115869;1181;69182;-50
2021/08/23 03:29:12;;;;;;;5.80;4.30;;;;;;;20.76;48.75;97593.05;115721;1185;67924;-56
2021/08/23 03:31:44;;;;;;;5.60;4.00;;;;;;;20.76;48.78;97595.37;115752;1181;59553;-55
2021/08/23 03:34:16;;;;;;;4.40;3.60;;;;;;;20.75;48.80;97592.41;115998;1181;59530;-53
2021/08/23 03:36:48;;;;;;;5.20;3.90;;;;;;;20.75;48.90;97592.62;115925;1185;71569;-56
2021/08/23 03:39:20;;;;;;;4.10;3.70;;;;;;;20.75;48.84;97590.88;115879;1185;69018;-54
2021/08/23 03:41:51;;;;;;;5.70;4.30;;;;;;;20.74;48.89;97594.87;115799;1185;68264;-55
2021/08/23 03:44:23;;;;;;;5.10;3.90;;;;;;;20.73;48.89;97590.73;115742;1183;59543;-53
2021/08/23 03:46:54;;;;;;;4.90;4.00;;;;;;;20.72;49.04;97593.89;115824;1185;59527;-52
2021/08/23 03:49:26;;;;;;;4.60;3.70;;;;;;;20.71;48.94;97592.36;115844;1185;70392;-55
2021/08/23 03:51:58;;;;;;;4.90;3.90;;;;;;;20.70;49.01;97594.25;115957;1185;68429;-52
2021/08/23 03:54:29;;;;;;;4.80;3.80;;;;;;;20.69;49.08;97595.20;115911;1185;69038;-53
2021/08/23 03:57:00;;;;;;;5.20;3.90;;;;;;;20.69;49.13;97593.16;115811;1185;59547;-54
2021/08/23 03:59:32;;;;;;;5.20;4.00;;;;;;;20.68;49.26;97592.16;115900;1185;59489;-55
2021/08/23 04:02:03;;;;;;;4.80;3.80;;;;;;;20.68;49.29;97595.05;115969;1185;71153;-50
2021/08/23 04:04:35;;;;;;;4.60;3.40;;;;;;;20.66;49.28;97595.04;115723;1180;68824;-52
2021/08/23 04:07:07;;;;;;;6.30;4.00;;;;;;;20.65;49.28;97597.45;115724;1185;69197;-55
2021/08/23 04:09:37;;;;;;;4.50;4.00;;;;;;;20.65;49.30;97598.73;115828;1183;59561;-55
2021/08/23 04:12:09;;;;;;;4.20;3.50;;;;;;;20.64;49.32;97600.08;115819;1185;59561;-54
2021/08/23 04:14:40;;;;;;;4.70;4.00;;;;;;;20.63;49.43;97602.14;115837;1185;71270;-52
2021/08/23 04:17:12;;;;;;;5.50;4.10;;;;;;;20.62;49.39;97602.11;115803;1185;68419;-55
2021/08/23 04:19:43;;;;;;;5.20;3.70;;;;;;;20.60;49.41;97601.70;115719;1185;68578;-55
2021/08/23 04:22:14;;;;;;;4.60;3.70;;;;;;;20.60;49.40;97597.70;115640;1185;59553;-52
2021/08/23 04:24:45;;;;;;;5.00;4.10;;;;;;;20.58;49.55;97597.55;115795;1184;59972;-52
2021/08/23 04:27:16;;;;;;;4.80;3.80;;;;;;;20.58;49.64;97597.70;115905;1185;71334;-56
2021/08/23 04:29:47;;;;;;;4.80;3.90;;;;;;;20.57;49.61;97597.29;115924;1185;68943;-55
2021/08/23 04:32:18;;;;;;;4.50;3.70;;;;;;;20.57;49.67;97594.66;115837;1185;69156;-54
2021/08/23 04:34:49;;;;;;;5.20;3.90;;;;;;;20.56;49.68;97594.18;115966;1181;59529;-55
2021/08/23 04:37:21;;;;;;;4.60;3.60;;;;;;;20.57;49.80;97597.88;115875;1181;59569;-51
2021/08/23 04:39:51;;;;;;;5.80;3.70;;;;;;;20.57;49.79;97596.61;115801;1185;71379;-49
2021/08/23 04:42:24;;;;;;;4.30;3.70;;;;;;;20.58;49.97;97593.49;115759;1185;69162;-55
2021/08/23 04:44:55;;;;;;;4.10;3.50;;;;;;;20.59;50.03;97594.05;115826;1185;68462;-55
2021/08/23 04:47:26;;;;;;;5.00;3.70;;;;;;;20.60;49.80;97596.20;115823;1183;59519;-55
2021/08/23 04:49:56;;;;;;;4.90;3.70;;;;;;;20.64;49.96;97589.89;115880;1185;59632;-55
2021/08/23 04:52:27;;;;;;;4.70;3.40;;;;;;;20.66;49.86;97586.08;115854;1185;71200;-51
2021/08/23 04:55:01;;;;;;;4.80;3.80;;;;;;;20.69;49.82;97590.17;116008;1181;68822;-55
2021/08/23 04:57:32;;;;;;;4.70;3.90;;;;;;;20.72;49.87;97587.48;115887;1185;69100;-51
2021/08/23 05:00:12;;;;;;;4.70;3.70;;;;;;;20.75;49.87;97585.04;115861;1185;59879;-56
2021/08/23 05:02:43;;;;;;;5.30;4.00;;;;;;;20.78;50.00;97583.23;115868;1185;59566;-55
2021/08/23 05:05:15;;;;;;;4.80;4.10;;;;;;;20.82;49.92;97580.16;115863;1185;70579;-49
2021/08/23 05:07:47;;;;;;;4.80;3.90;;;;;;;20.86;49.98;97582.05;115849;1185;68165;-55
2021/08/23 05:10:18;;;;;;;5.20;3.70;;;;;;;20.90;50.10;97583.59;115795;1185;68416;-55
2021/08/23 05:12:55;;;;;;;5.10;4.00;;;;;;;20.95;50.12;97589.22;115853;1185;59564;-52
2021/08/23 05:15:27;;;;;;;5.30;4.10;;;;;;;20.99;50.24;97591.15;116004;1185;59573;-49
2021/08/23 05:17:58;;;;;;;6.30;4.40;;;;;;;21.03;50.36;97592.83;115779;1181;69950;-50
2021/08/23 05:20:30;;;;;;;5.50;4.40;;;;;;;21.07;50.21;97596.61;115871;1185;69477;-54
2021/08/23 05:23:01;;;;;;;5.70;4.70;;;;;;;21.12;50.23;97600.92;115820;1185;68483;-55
2021/08/23 05:25:33;;;;;;;6.50;4.10;;;;;;;21.15;50.11;97602.64;115807;1185;59530;-56
2021/08/23 05:28:05;;;;;;;6.60;4.40;;;;;;;21.19;50.06;97605.02;115876;1183;59548;-57
2021/08/23 05:30:36;;;;;;;5.20;4.30;;;;;;;21.23;49.93;97603.90;115852;1185;70528;-54
2021/08/23 05:33:07;;;;;;;6.80;4.50;;;;;;;21.27;50.00;97606.27;115885;1185;69198;-53
2021/08/23 05:35:38;;;;;;;5.80;4.30;;;;;;;21.30;49.99;97603.81;115905;1185;69213;-57
2021/08/23 05:38:08;;;;;;;6.70;4.30;;;;;;;21.33;50.04;97602.91;115830;1184;59574;-55
2021/08/23 05:40:42;;;;;;;6.70;4.20;;;;;;;21.35;50.01;97601.45;115832;1185;59625;-53
2021/08/23 05:43:13;;;;;;;5.80;4.30;;;;;;;21.39;50.03;97602.48;115817;1181;71331;-52
2021/08/23 05:45:44;;;;;;;4.40;3.80;;;;;;;21.42;49.95;97596.85;115820;1185;69152;-55
2021/08/23 05:48:16;;;;;;;6.00;3.90;;;;;;;21.45;49.94;97598.27;115758;1185;69255;-54
2021/08/23 05:50:47;;;;;;;6.50;4.20;;;;;;;21.48;50.01;97596.61;115837;1185;59622;-51
2021/08/23 05:53:18;;;;;;;5.40;4.50;;;;;;;21.53;49.98;97597.35;115825;1185;59542;-52
2021/08/23 05:55:48;;;;;;;6.90;4.40;;;;;;;21.57;50.01;97600.41;115802;1185;70432;-53
2021/08/23 05:58:19;;;;;;;4.80;4.10;;;;;;;21.62;50.10;97598.98;115840;1185;68411;-52
2021/08/23 06:00:50;;;;;;;6.30;4.40;;;;;;;21.67;50.04;97596.98;115757;1185;69043;-52
2021/08/23 06:03:21;;;;;;;4.90;3.80;;;;;;;21.72;50.00;97595.12;115875;1181;59579;-52
2021/08/23 06:05:52;;;;;;;6.50;4.40;;;;;;;21.77;50.03;97593.39;115726;1185;59514;-55
2021/08/23 06:08:23;;;;;;;5.60;4.20;;;;;;;21.84;50.01;97594.27;115884;1185;70450;-52
2021/08/23 06:10:54;;;;;;;4.40;3.70;;;;;;;21.90;50.14;97595.31;115803;1185;68392;-52
2021/08/23 06:13:25;;;;;;;4.50;3.80;;;;;;;21.96;50.04;97590.42;115874;1185;69509;-54
2021/08/23 06:15:57;;;;;;;4.90;4.40;;;;;;;22.02;50.08;97586.83;115839;1185;59550;-57
2021/08/23 06:18:28;;;;;;;4.40;3.60;;;;;;;22.08;49.83;97588.65;115864;1185;59628;-57
2021/08/23 06:21:00;;;;;;;5.20;4.20;;;;;;;22.14;49.94;97590.25;115878;1183;70793;-56
2021/08/23 06:23:31;;;;;;;7.00;4.10;;;;;;;22.20;50.11;97590.73;115888;1185;69178;-51
2021/08/23 06:26:02;;;;;;;6.40;4.20;;;;;;;22.28;50.20;97587.70;115895;1185;68502;-55
2021/08/23 06:28:33;;;;;;;5.40;4.00;;;;;;;22.34;50.05;97584.84;115824;1186;59543;-56
2021/08/23 06:31:04;;;;;;;4.50;3.80;;;;;;;22.41;49.83;97586.25;115838;1185;59546;-56
2021/08/23 06:33:35;;;;;;;4.80;3.90;;;;;;;22.46;49.76;97584.65;115927;1185;71850;-52
2021/08/23 06:36:06;;;;;;;4.60;3.80;;;;;;;22.53;49.60;97586.22;115846;1185;69146;-54
2021/08/23 06:38:37;;;;;;;4.40;3.50;;;;;;;22.58;49.71;97584.59;115817;1185;69093;-52
2021/08/23 06:41:07;;;;;;;5.60;4.00;;;;;;;22.65;49.52;97586.81;115873;1185;59549;-54
2021/08/23 06:43:38;;;;;;;5.70;4.00;;;;;;;22.71;49.43;97588.45;115855;1185;59521;-53
2021/08/23 06:46:09;;;;;;;4.80;3.60;;;;;;;22.77;49.25;97590.54;115835;1181;71383;-56
2021/08/23 06:48:44;;;;;;;4.70;3.90;;;;;;;22.82;49.17;97590.59;115861;1185;69213;-55
2021/08/23 06:51:20;;;;;;;5.50;3.80;;;;;;;22.88;49.01;97587.80;115841;1185;68673;-55
2021/08/23 06:53:51;;;;;;;4.70;3.80;;;;;;;22.94;48.91;97584.65;115836;1185;59588;-53
2021/08/23 06:56:22;;;;;;;5.60;3.80;;;;;;;23.00;48.84;97582.36;115913;1185;59613;-55
2021/08/23 06:58:54;;;;;;;5.60;3.90;;;;;;;23.05;48.76;97581.31;115855;1185;70551;-54
2021/08/23 07:01:26;;;;;;;4.90;3.90;;;;;;;23.11;48.77;97579.50;115886;1185;68433;-54
2021/08/23 07:03:57;;;;;;;5.40;4.00;;;;;;;23.17;48.86;97579.48;115769;1185;68285;-51
2021/08/23 07:06:28;;;;;;;6.20;3.90;;;;;;;23.23;48.69;97579.87;115809;1181;59559;-54
2021/08/23 07:08:59;;;;;;;4.10;3.50;;;;;;;23.28;48.53;97581.83;115902;1185;59565;-54
2021/08/23 07:11:30;;;;;;;5.90;4.70;;;;;;;23.33;48.58;97580.70;115810;1181;71261;-54
2021/08/23 07:14:01;;;;;;;6.50;4.70;;;;;;;23.39;48.73;97578.80;115941;1185;68764;-52
2021/08/23 07:16:35;;;;;;;6.10;4.60;;;;;;;23.44;49.08;97576.79;115917;1185;68363;-58
2021/08/23 07:19:06;;;;;;;5.60;4.30;;;;;;;23.50;49.13;97577.66;115779;1185;59485;-55
2021/08/23 07:21:37;;;;;;;6.40;4.40;;;;;;;23.57;49.02;97578.82;115900;1185;59558;-53
2021/08/23 07:24:10;;;;;;;9.70;5.00;;;;;;;23.65;49.02;97583.64;115877;1185;69690;-54
2021/08/23 07:26:41;;;;;;;13.30;6.90;;;;;;;23.71;49.26;97579.62;115841;1185;68453;-52
2021/08/23 07:29:15;;;;;;;8.60;6.50;;;;;;;23.79;49.36;97579.52;115877;1185;69335;-55
2021/08/23 07:31:47;;;;;;;13.10;7.50;;;;;;;23.86;49.22;97574.57;115787;1186;59557;-59
2021/08/23 07:34:18;;;;;;;10.80;6.70;;;;;;;23.93;49.31;97573.48;115993;1186;59552;-61
2021/08/23 07:36:51;;;;;;;13.40;7.70;;;;;;;24.00;49.21;97572.08;115936;1186;70626;-61
2021/08/23 07:39:22;;;;;;;11.30;7.10;;;;;;;24.07;49.31;97569.41;115856;1185;69199;-55
2021/08/23 07:41:55;;;;;;;12.30;7.70;;;;;;;24.14;49.13;97570.49;115842;1186;68301;-52
2021/08/23 07:44:26;;;;;;;11.60;7.40;;;;;;;24.20;48.89;97567.13;115783;1186;59951;-55
2021/08/23 07:46:59;;;;;;;9.30;6.60;;;;;;;24.26;48.73;97565.04;115846;1183;59520;-55
2021/08/23 07:49:33;;;;;;;15.20;7.60;;;;;;;24.33;48.66;97562.95;115887;1183;70542;-65
2021/08/23 07:52:11;;;;;;;9.40;6.70;;;;;;;24.40;48.30;97563.15;115947;1186;68511;-65
2021/08/23 07:54:42;;;;;;;9.50;6.70;;;;;;;24.47;48.19;97557.65;115885;1186;69335;-72
2021/08/23 07:57:17;;;;;;;11.00;7.10;;;;;;;24.55;48.07;97556.67;116014;1186;59548;-66
2021/08/23 07:59:48;;;;;;;7.70;6.10;;;;;;;24.62;47.80;97557.70;116064;1186;59574;-67
2021/08/23 08:02:19;;;;;;;10.60;6.60;;;;;;;24.68;47.81;97553.87;115899;1183;71696;-75
2021/08/23 08:04:50;;;;;;;9.70;6.40;;;;;;;24.75;47.70;97552.99;115925;1186;68409;-76
2021/08/23 08:07:21;;;;;;;8.70;6.70;;;;;;;24.80;47.60;97554.09;115750;1186;68431;-62
2021/08/23 08:09:52;;;;;;;8.20;6.10;;;;;;;24.87;47.44;97557.84;115836;1182;59561;-61
2021/08/23 08:12:22;;;;;;;9.20;6.20;;;;;;;24.92;47.34;97554.89;115799;1186;59551;-62
2021/08/23 08:14:56;;;;;;;10.00;5.90;;;;;;;24.98;47.31;97554.67;115823;1186;70536;-59
2021/08/23 08:17:31;;;;;;;8.90;6.40;;;;;;;25.02;47.24;97555.47;115808;1186;68744;-62
2021/08/23 08:20:06;;;;;;;8.20;6.50;;;;;;;25.07;47.17;97554.35;115811;1186;69075;-62
2021/08/23 08:22:44;;;;;;;9.20;6.10;;;;;;;25.12;47.21;97554.10;115851;1186;59553;-68
2021/08/23 08:25:20;;;;;;;8.80;6.10;;;;;;;25.16;46.92;97552.80;115820;1186;59559;-65
2021/08/23 08:27:52;;;;;;;6.60;6.00;;;;;;;25.21;46.71;97551.41;115834;1186;70583;-64
2021/08/23 08:30:24;;;;;;;7.30;5.70;;;;;;;25.25;46.71;97549.63;115819;1187;68415;-63
2021/08/23 08:32:58;;;;;;;6.90;5.60;;;;;;;25.31;46.56;97547.65;115892;1185;69152;-63
2021/08/23 08:35:35;;;;;;;7.60;6.00;;;;;;;25.35;46.49;97549.23;115814;1181;59561;-60
2021/08/23 08:38:14;;;;;;;6.80;5.50;;;;;;;25.39;46.35;97547.80;115870;1183;59639;-66
2021/08/23 08:40:50;;;;;;;6.40;5.70;;;;;;;25.43;46.32;97539.65;115864;1185;71158;-66
2021/08/23 08:43:28;;;;;;;7.00;5.50;;;;;;;25.47;46.29;97539.13;115854;1181;68459;-65
2021/08/23 08:45:59;;;;;;;7.10;5.20;;;;;;;25.50;46.09;97531.20;115765;1181;69094;-69
2021/08/23 08:48:31;;;;;;;6.80;5.30;;;;;;;25.55;45.86;97532.39;115950;1184;59552;-68
2021/08/23 08:51:03;;;;;;;6.90;5.40;;;;;;;25.58;45.74;97529.80;115858;1183;59558;-65
2021/08/23 08:53:39;;;;;;;7.30;5.90;;;;;;;25.61;45.58;97527.55;115806;1185;71171;-64
2021/08/23 08:56:10;;;;;;;6.40;5.70;;;;;;;25.64;45.48;97527.55;115890;1185;68431;-66
2021/08/23 08:58:40;;;;;;;5.50;4.80;;;;;;;25.68;45.32;97527.71;115858;1185;69390;-66
2021/08/23 09:01:12;;;;;;;6.10;5.40;;;;;;;25.72;45.36;97525.26;115797;1181;59556;-63
2021/08/23 09:03:46;;;;;;;6.20;5.60;;;;;;;25.77;45.15;97524.35;115849;1184;59547;-61
2021/08/23 09:06:16;;;;;;;5.80;5.30;;;;;;;25.79;45.03;97527.18;115886;1185;71338;-60
2021/08/23 09:08:47;;;;;;;7.70;5.90;;;;;;;25.82;44.82;97527.42;115872;1185;68418;-66
2021/08/23 09:11:20;;;;;;;7.20;5.50;;;;;;;25.85;44.76;97522.41;115732;1185;69306;-59
2021/08/23 09:14:06;;;;;;;6.80;5.60;;;;;;;25.89;44.79;97523.89;115803;1182;60042;-64
2021/08/23 09:16:43;;;;;;;6.90;5.90;;;;;;;25.92;44.60;97520.88;115873;1185;59563;-66
2021/08/23 09:19:28;;;;;;;5.60;5.10;;;;;;;25.95;44.62;97516.58;115859;1185;71349;-62
2021/08/23 09:22:11;;;;;;;6.10;5.40;;;;;;;25.98;44.45;97511.86;115904;1186;69593;-62
2021/08/23 09:24:43;;;;;;;6.00;5.20;;;;;;;26.01;44.53;97508.06;115895;1185;69238;-62
2021/08/23 09:27:15;;;;;;;6.80;5.70;;;;;;;26.03;44.50;97503.26;115871;1183;59511;-64
2021/08/23 09:29:54;;;;;;;6.30;5.70;;;;;;;26.06;44.39;97502.34;115869;1180;59569;-62
2021/08/23 09:32:49;;;;;;;5.80;5.30;;;;;;;26.08;44.32;97499.05;115849;1185;71329;-68
2021/08/23 09:35:35;;;;;;;6.90;5.50;;;;;;;26.11;44.11;97493.88;115836;1185;68783;-67
2021/08/23 09:38:11;;;;;;;6.40;5.80;;;;;;;26.14;44.11;97492.96;115869;1182;69232;-67
2021/08/23 09:40:51;;;;;;;6.40;5.70;;;;;;;26.19;44.16;97493.13;115860;1185;59546;-63
2021/08/23 09:43:31;;;;;;;6.70;5.70;;;;;;;26.22;44.10;97495.31;115783;1185;59511;-69
2021/08/23 09:46:11;;;;;;;6.70;5.50;;;;;;;26.25;43.98;97496.01;115882;1180;70623;-69
2021/08/23 09:48:53;;;;;;;6.40;5.80;;;;;;;26.29;43.99;97493.35;115785;1182;68681;-64
2021/08/23 09:51:30;;;;;;;6.30;5.30;;;;;;;26.32;43.94;97493.88;115963;1185;69269;-65
2021/08/23 09:54:06;;;;;;;5.60;5.00;;;;;;;26.35;43.81;97491.86;115921;1185;59552;-64
2021/08/23 09:56:46;;;;;;;6.80;6.10;;;;;;;26.38;43.71;97492.70;115799;1183;59562;-66
2021/08/23 09:59:22;;;;;;;6.50;5.80;;;;;;;26.41;43.79;97493.38;115816;1185;70458;-62
2021/08/23 10:01:55;;;;;;;6.10;5.50;;;;;;;26.44;43.69;97493.96;115820;1185;68408;-54
2021/08/23 10:04:31;;;;;;;6.20;5.50;;;;;;;26.46;43.65;97496.86;115869;1185;68580;-55
2021/08/23 10:07:04;;;;;;;8.00;5.90;;;;;;;26.49;43.60;97499.20;115889;1185;59507;-54
2021/08/23 10:09:35;;;;;;;6.30;5.70;;;;;;;26.50;43.55;97496.85;115858;1185;59578;-54
2021/08/23 10:12:06;;;;;;;6.70;6.10;;;;;;;26.52;43.46;97497.13;115886;1185;71415;-55
2021/08/23 10:14:37;;;;;;;6.60;5.70;;;;;;;26.52;43.47;97494.95;115838;1185;68423;-56
2021/08/23 10:17:08;;;;;;;6.20;5.60;;;;;;;26.54;43.46;97488.30;115873;1185;68237;-63
2021/08/23 10:19:42;;;;;;;5.80;5.20;;;;;;;26.56;43.52;97489.48;115819;1185;59546;-63
2021/08/23 10:22:14;;;;;;;5.90;5.20;;;;;;;26.57;43.42;97492.08;115782;1185;59533;-63
2021/08/23 10:24:47;;;;;;;6.80;5.70;;;;;;;26.60;43.35;97489.97;115820;1185;70380;-63
2021/08/23 10:27:22;;;;;;;6.40;5.80;;;;;;;26.62;43.44;97489.10;115843;1185;69179;-63
2021/08/23 10:29:54;;;;;;;6.20;5.70;;;;;;;26.65;43.41;97490.20;115871;1185;69180;-62
2021/08/23 10:32:36;;;;;;;6.40;5.80;;;;;;;26.68;43.35;97484.47;115840;1182;59553;-64
2021/08/23 10:35:25;;;;;;;6.00;5.50;;;;;;;26.70;43.23;97481.64;115896;1184;59507;-65
2021/08/23 10:38:22;;;;;;;6.60;5.50;;;;;;;26.73;43.17;97479.77;116022;1182;71466;-67
2021/08/23 10:41:06;;;;;;;6.20;5.60;;;;;;;26.76;43.11;97477.95;115839;1185;69198;-61
2021/08/23 10:43:57;;;;;;;6.40;5.70;;;;;;;26.78;43.06;97474.73;115784;1185;68431;-66
2021/08/23 10:46:44;;;;;;;5.80;5.30;;;;;;;26.81;42.93;97473.14;115834;1185;59558;-60
2021/08/23 10:49:19;;;;;;;6.10;5.40;;;;;;;26.84;42.86;97473.45;115923;1185;59552;-64
2021/08/23 10:51:58;;;;;;;6.00;5.40;;;;;;;26.86;42.87;97471.31;115914;1182;70567;-55
2021/08/23 10:54:46;;;;;;;6.30;5.70;;;;;;;26.89;42.84;97467.15;115868;1185;69206;-69
2021/08/23 10:57:22;;;;;;;6.30;5.70;;;;;;;26.90;42.79;97465.55;115793;1185;69164;-62
2021/08/23 10:59:54;;;;;;;6.40;5.80;;;;;;;26.93;42.58;97465.46;115828;1185;59652;-59
2021/08/23 11:02:32;;;;;;;6.50;5.60;;;;;;;26.94;42.46;97464.98;115868;1185;59514;-57
2021/08/23 11:05:09;;;;;;;;;;;;;;;26.96;42.45;97461.08;115950;1185;71347;-61
2021/08/23 11:07:46;;;;;;;6.40;5.70;;;;;;;26.97;42.35;97459.23;115922;1185;69062;-63
2021/08/23 11:10:24;;;;;;;6.40;5.80;;;;;;;26.99;42.12;97454.02;115862;1185;68252;-60
2021/08/23 11:12:57;;;;;;;6.70;5.90;;;;;;;27.01;41.97;97454.77;115709;1185;59552;-60
2021/08/23 11:15:31;;;;;;;7.00;6.20;;;;;;;27.03;41.98;97452.72;115850;1185;59558;-59
2021/08/23 11:18:16;;;;;;;7.10;6.40;;;;;;;27.05;41.85;97449.59;115939;1182;71083;-64
2021/08/23 11:20:51;;;;;;;8.00;5.90;;;;;;;27.06;42.07;97445.77;115832;1185;68396;-63
2021/08/23 11:23:25;;;;;;;7.10;6.10;;;;;;;27.07;42.09;97442.76;115842;1185;69218;-68
2021/08/23 11:25:59;;;;;;;6.60;5.90;;;;;;;27.09;42.02;97444.36;115761;1185;59575;-65
2021/08/23 11:28:30;;;;;;;6.40;5.90;;;;;;;27.10;41.92;97440.76;115774;1182;59558;-63
2021/08/23 11:31:05;;;;;;;6.40;5.80;;;;;;;27.12;42.12;97433.76;115919;1182;70725;-62
2021/08/23 11:33:40;;;;;;;5.80;5.20;;;;;;;27.13;42.05;97436.46;115757;1185;69173;-64
2021/08/23 11:36:24;;;;;;;6.70;6.00;;;;;;;27.14;41.90;97438.05;115792;1185;69043;-61
2021/08/23 11:38:55;;;;;;;7.30;6.40;;;;;;;27.15;41.85;97426.11;115882;1185;59657;-63
2021/08/23 11:41:26;;;;;;;6.70;5.90;;;;;;;27.16;42.08;97422.80;115715;1185;59555;-63
2021/08/23 11:44:03;;;;;;;6.40;5.80;;;;;;;27.18;42.07;97422.58;115829;1185;71154;-64
2021/08/23 11:46:34;;;;;;;6.60;6.00;;;;;;;27.19;41.97;97419.52;115790;1185;68305;-64
2021/08/23 11:49:05;;;;;;;7.20;6.30;;;;;;;27.20;41.94;97416.54;115899;1185;68350;-59
2021/08/23 11:51:39;;;;;;;6.10;5.60;;;;;;;27.22;42.07;97409.67;115836;1182;59534;-61